N8VIM Weather Reports


Display with metric or nautical units.
time (UTC)temp
F
wind
direction
speed
MPH
gust
MPH
rain 1hr
in
rain 24hr
in
rain mn
in
humidity
%
barometer
mb
20190626195313 83 0 0.0 0.0 240.71 0.00 0.00 50 1015.6
20190626194812 83 0 0.0 0.0 240.71 0.00 0.00 51 1015.7
20190626194312 83 132 0.0 3.0 240.71 0.00 0.00 47 1015.7
20190626193813 84 0 0.0 0.0 240.71 0.00 0.00 49 1015.7
20190626193312 85 0 0.0 0.0 240.71 0.00 0.00 52 1015.6
20190626192812 82 0 0.0 0.0 240.71 0.00 0.00 53 1015.6
20190626192313 82 0 0.0 0.0 240.71 0.00 0.00 54 1015.6
20190626191812 82 0 0.0 0.0 240.71 0.00 0.00 55 1015.5
20190626191312 82 0 0.0 0.0 240.71 0.00 0.00 52 1015.5
20190626190813 81 0 0.0 0.0 240.71 0.00 0.00 53 1015.4
20190626190312 80 0 0.0 0.0 240.71 0.00 0.00 55 1015.4
20190626185812 79 0 0.0 0.0 240.71 0.00 0.00 56 1015.4
20190626185313 81 167 0.0 3.0 240.71 0.00 0.00 54 1015.4
20190626184812 82 218 0.0 3.0 240.71 0.00 0.00 55 1015.4
20190626183813 82 135 2.0 2.0 240.71 0.00 0.00 59 1015.5
20190626183313 75 0 0.0 0.0 240.71 0.00 0.00 59 1015.6
20190626182812 79 195 1.0 2.0 240.71 0.00 0.00 58 1015.6
20190626182313 82 0 0.0 0.0 240.71 0.00 0.00 59 1015.6
20190626181812 82 347 0.0 3.0 240.71 0.00 0.00 58 1015.6
20190626181312 81 0 0.0 0.0 240.71 0.00 0.00 59 1015.6
20190626180813 80 0 0.0 0.0 240.71 0.00 0.00 61 1015.7
20190626180312 79 0 0.0 0.0 240.71 0.00 0.00 61 1015.6
20190626175812 79 132 1.0 4.0 240.71 0.00 0.00 60 1015.7
20190626175313 79 131 0.0 5.0 240.71 0.00 0.00 63 1015.8
20190626174812 77 191 2.0 4.0 240.71 0.00 0.00 62 1015.9
20190626174312 76 153 0.0 3.0 240.71 0.00 0.00 63 1015.9
20190626173813 76 0 0.0 0.0 240.71 0.00 0.00 65 1016.0
20190626173312 73 0 0.0 0.0 240.71 0.00 0.00 66 1016.1
20190626172812 71 0 0.0 0.0 240.71 0.00 0.00 65 1016.2
20190626172313 74 190 0.0 3.0 240.71 0.00 0.00 66 1016.2
20190626171812 75 105 0.0 3.0 240.71 0.00 0.00 68 1016.2
20190626171312 75 134 0.0 3.0 240.71 0.00 0.00 70 1016.3
20190626170812 75 152 0.0 3.0 240.71 0.00 0.00 71 1016.5
20190626170313 75 107 0.0 2.0 240.71 0.00 0.00 72 1016.5
20190626165812 74 108 0.0 3.0 240.71 0.00 0.00 72 1016.5
20190626165312 74 107 0.0 4.0 240.71 0.00 0.00 75 1016.5
20190626164812 74 271 0.0 3.0 240.71 0.00 0.00 73 1016.5
20190626164312 74 316 3.0 5.0 240.71 0.00 0.00 72 1016.6
20190626163812 74 188 0.0 3.0 240.71 0.00 0.00 74 1016.6
20190626163312 74 0 0.0 0.0 240.71 0.00 0.00 74 1016.5
20190626162812 74 0 0.0 0.0 240.71 0.00 0.00 75 1016.4
20190626162312 74 108 0.0 2.0 240.71 0.00 0.00 76 1016.5
20190626161812 73 132 1.0 4.0 240.71 0.00 0.00 73 1016.5
20190626161312 74 105 1.0 2.0 240.71 0.00 0.00 78 1016.5
20190626160812 73 0 0.0 0.0 240.71 0.00 0.00 78 1016.4
20190626160312 73 342 0.0 2.0 240.71 0.00 0.00 78 1016.5
20190626155812 73 345 1.0 3.0 240.71 0.00 0.00 80 1016.7
20190626155312 72 0 0.0 0.0 240.71 0.00 0.00 80 1016.7
20190626154812 72 0 0.0 0.0 240.71 0.00 0.00 83 1016.7
20190626154312 71 0 0.0 0.0 240.71 0.00 0.00 83 1016.8
20190626153812 71 333 0.0 2.0 240.71 0.00 0.00 84 1016.8
20190626153312 71 179 1.0 3.0 240.71 0.00 0.00 84 1016.8
20190626152812 71 0 0.0 0.0 240.71 0.00 0.00 86 1016.7
20190626152312 70 0 0.0 0.0 240.71 0.00 0.00 87 1016.8
20190626151812 70 0 0.0 0.0 240.71 0.00 0.00 86 1016.9
20190626151312 70 266 1.0 5.0 240.71 0.00 0.00 86 1016.8
20190626150813 70 0 0.0 0.0 240.71 0.00 0.00 89 1016.8
20190626150312 70 0 0.0 0.0 240.71 0.00 0.00 89 1016.8
20190626145812 70 146 1.0 4.0 240.71 0.00 0.00 90 1016.8
20190626145312 70 323 0.0 1.0 240.71 0.00 0.00 91 1016.9
20190626144811 69 297 0.0 1.0 240.71 0.00 0.00 92 1017.1
20190626144312 69 298 0.0 3.0 240.71 0.00 0.00 93 1017.1
20190626143812 69 113 1.0 3.0 240.71 0.00 0.00 93 1017.1
20190626143312 69 129 1.0 4.0 240.71 0.00 0.00 94 1016.9
20190626142811 69 0 0.0 0.0 240.71 0.00 0.00 94 1017.1
20190626142312 69 65 0.0 3.0 240.71 0.00 0.00 96 1017.1
20190626141811 69 129 0.0 1.0 240.71 0.00 0.00 96 1016.9
20190626141311 69 259 0.0 2.0 240.71 0.00 0.00 97 1016.9
20190626140812 69 0 0.0 0.0 240.71 0.00 0.00 97 1016.9
20190626140311 69 121 0.0 2.0 240.71 0.00 0.00 98 1016.9
20190626135811 69 104 0.0 2.0 240.71 0.00 0.00 99 1016.8
20190626135312 68 111 0.0 1.0 240.71 0.00 0.00 99 1016.8
20190626134811 67 294 0.0 4.0 240.71 0.00 0.00 99 1016.8
20190626134311 67 274 3.0 3.0 240.71 0.00 0.00 99 1016.9
20190626133812 67 287 1.0 5.0 240.71 0.00 0.00 100 1016.8
20190626133312 67 273 1.0 3.0 240.71 0.00 0.00 100 1016.8
20190626132312 66 300 2.0 5.0 240.71 0.00 0.00 100 1016.8
20190626131811 66 224 0.0 3.0 240.71 0.00 0.00 100 1016.7
20190626131311 66 257 0.0 2.0 240.71 0.00 0.00 100 1016.7
20190626130812 66 0 0.0 0.0 240.71 0.00 0.00 100 1016.6
20190626130311 66 0 0.0 0.0 240.71 0.00 0.00 100 1016.6
20190626125811 66 0 0.0 0.0 240.71 0.00 0.00 100 1016.6
20190626125312 65 0 0.0 0.0 240.71 0.00 0.00 100 1016.5
20190626124811 65 0 0.0 0.0 240.71 0.00 0.00 100 1016.5
20190626124311 65 0 0.0 0.0 240.71 0.00 0.00 100 1016.6
20190626123812 65 284 0.0 2.0 240.71 0.00 0.00 100 1016.6
20190626123311 65 343 0.0 2.0 240.71 0.00 0.00 100 1016.5
20190626122811 65 246 0.0 3.0 240.71 0.00 0.00 100 1016.5
20190626122312 65 0 0.0 0.0 240.71 0.00 0.00 100 1016.5
20190626121811 65 0 0.0 0.0 240.71 0.00 0.00 100 1016.4
20190626121314 65 107 0.0 2.0 240.71 0.00 0.00 100 1016.4
20190626120812 65 0 0.0 0.0 240.71 0.00 0.00 100 1016.5
20190626120313 65 0 0.0 0.0 240.71 0.00 0.00 100 1016.4
20190626115811 65 0 0.0 0.0 240.71 0.00 0.00 100 1016.4
20190626115312 65 0 0.0 0.0 240.71 0.00 0.00 100 1016.4
20190626114811 65 240 0.0 2.0 240.71 0.00 0.00 100 1016.4
20190626114312 65 0 0.0 0.0 240.71 0.00 0.00 100 1016.3
20190626113812 65 0 0.0 0.0 240.71 0.00 0.00 100 1016.3
20190626113311 65 274 0.0 0.0 240.71 0.00 0.00 100 1016.2
20190626112812 65 0 0.0 0.0 240.71 0.00 0.00 100 1016.2
20190626112312 65 0 0.0 0.0 240.71 0.00 0.00 100 1016.2
20190626111811 65 0 0.0 0.0 240.71 0.00 0.00 100 1016.3
20190626111311 65 0 0.0 0.0 240.71 0.00 0.00 100 1016.3
20190626110812 64 0 0.0 0.0 240.71 0.00 0.00 100 1016.3
20190626110312 64 0 0.0 0.0 240.71 0.00 0.00 100 1016.2
20190626105811 64 0 0.0 0.0 240.71 0.00 0.00 100 1016.3
20190626105313 64 0 0.0 0.0 240.71 0.00 0.00 100 1016.3
20190626104811 64 293 0.0 2.0 240.71 0.00 0.00 100 1016.3
20190626104313 64 0 0.0 0.0 240.71 0.00 0.00 100 1016.3
20190626103812 64 0 0.0 0.0 240.71 0.00 0.00 100 1016.3
20190626103311 64 0 0.0 0.0 240.71 0.00 0.00 100 1016.2
20190626102811 64 0 0.0 0.0 240.71 0.00 0.00 100 1016.1
20190626102312 64 0 0.0 0.0 240.71 0.00 0.00 100 1015.9
20190626101811 64 0 0.0 0.0 240.71 0.00 0.00 100 1015.9
20190626101311 64 0 0.0 0.0 240.71 0.00 0.00 100 1015.9
20190626100813 64 0 0.0 0.0 240.71 0.00 0.00 100 1015.7
20190626100314 64 45 1.0 2.0 240.71 0.00 0.00 100 1015.7
20190626095811 64 0 0.0 0.0 240.71 0.00 0.00 100 1015.6
20190626095314 64 0 0.0 0.0 240.71 0.00 0.00 100 1015.6
20190626094811 64 0 0.0 0.0 240.71 0.00 0.00 100 1015.5
20190626094312 64 0 0.0 0.0 240.71 0.00 0.00 100 1015.4
20190626093812 64 0 0.0 0.0 240.71 0.00 0.00 100 1015.4
20190626093312 64 0 0.0 0.0 240.71 0.00 0.00 100 1015.3
20190626092812 64 0 0.0 0.0 240.71 0.00 0.00 100 1015.1
20190626092312 64 0 0.0 0.0 240.71 0.00 0.00 100 1015.0
20190626091811 64 0 0.0 0.0 240.71 0.00 0.00 100 1014.9
20190626091311 65 0 0.0 0.0 240.71 0.00 0.00 100 1014.9
20190626090811 65 0 0.0 0.0 240.71 0.00 0.00 100 1014.8
20190626090311 65 0 0.0 0.0 240.71 0.00 0.00 100 1014.7
20190626085812 65 0 0.0 0.0 240.71 0.00 0.00 100 1014.6
20190626085312 65 0 0.0 0.0 240.71 0.00 0.00 100 1014.7
20190626084811 65 0 0.0 0.0 240.71 0.00 0.00 100 1014.7
20190626084311 65 0 0.0 0.0 240.71 0.00 0.00 100 1014.6
20190626083811 65 0 0.0 0.0 240.71 0.00 0.00 100 1014.6
20190626083311 65 0 0.0 0.0 240.71 0.00 0.00 100 1014.5
20190626082811 65 0 0.0 0.0 240.71 0.00 0.00 100 1014.5
20190626082312 65 0 0.0 0.0 240.71 0.00 0.00 100 1014.5
20190626081811 65 0 0.0 0.0 240.71 0.00 0.00 100 1014.6
20190626081311 65 0 0.0 0.0 240.71 0.00 0.00 100 1014.5
20190626080811 65 0 0.0 0.0 240.71 0.00 0.00 100 1014.4
20190626080311 65 0 0.0 0.0 240.71 0.00 0.00 100 1014.4
20190626075811 65 0 0.0 0.0 240.71 0.00 0.00 100 1014.3
20190626075311 65 0 0.0 0.0 240.71 0.00 0.00 100 1014.1
20190626074811 65 0 0.0 0.0 240.71 0.00 0.00 100 1014.0
20190626074311 65 0 0.0 0.0 240.71 0.00 0.00 100 1014.0
20190626073811 65 0 0.0 0.0 240.71 0.00 0.00 100 1014.1
20190626073311 65 0 0.0 0.0 240.71 0.00 0.00 100 1014.0
20190626072810 65 0 0.0 0.0 240.71 0.00 0.00 100 1014.0
20190626072311 65 0 0.0 0.0 240.71 0.00 0.00 100 1014.0
20190626071811 65 0 0.0 0.0 240.71 0.00 0.00 100 1014.0
20190626071310 65 0 0.0 0.0 240.71 0.00 0.00 100 1014.0
20190626070811 65 0 0.0 0.0 240.71 0.00 0.00 100 1014.0
20190626070311 65 0 0.0 0.0 240.71 0.00 0.00 100 1014.0
20190626065810 65 0 0.0 0.0 240.71 0.00 0.00 100 1013.9
20190626065312 65 0 0.0 0.0 240.71 0.00 0.00 100 1013.9
20190626064811 65 0 0.0 0.0 240.71 0.00 0.00 100 1013.7
20190626064311 64 0 0.0 0.0 240.71 0.00 0.00 100 1013.7
20190626063811 64 0 0.0 0.0 240.71 0.00 0.00 100 1013.7
20190626063311 64 0 0.0 0.0 240.71 0.00 0.00 100 1013.7
20190626062810 65 0 0.0 0.0 240.71 0.00 0.00 100 1013.7
20190626062311 65 0 0.0 0.0 240.71 0.00 0.00 100 1013.8
20190626061810 65 0 0.0 0.0 240.71 0.00 0.00 100 1013.8
20190626061310 65 0 0.0 0.0 240.71 0.00 0.00 100 1013.8
20190626060811 65 0 0.0 0.0 240.71 0.00 0.00 100 1013.8
20190626060311 65 0 0.0 0.0 240.71 0.00 0.00 100 1013.6
20190626055810 65 0 0.0 0.0 240.71 0.00 0.00 100 1013.6
20190626055311 65 0 0.0 0.0 240.71 0.00 0.00 100 1013.5
20190626054810 65 0 0.0 0.0 240.71 0.00 0.00 100 1013.6
20190626054310 65 0 0.0 0.0 240.71 0.00 0.00 100 1013.7
20190626053812 65 0 0.0 0.0 240.71 0.00 0.00 100 1013.7
20190626053310 65 0 0.0 0.0 240.71 0.00 0.00 100 1013.5
20190626052810 65 0 0.0 0.0 240.71 0.00 0.00 100 1013.5
20190626052311 64 0 0.0 0.0 240.71 0.00 0.00 100 1013.4
20190626051810 64 0 0.0 0.0 240.71 0.00 0.00 100 1013.5
20190626051310 64 0 0.0 0.0 240.71 0.00 0.00 100 1013.5
20190626050811 65 0 0.0 0.0 240.71 0.00 0.00 100 1013.6
20190626050310 65 0 0.0 0.0 240.71 0.00 0.00 100 1013.4
20190626045810 65 0 0.0 0.0 240.71 0.00 0.00 100 1013.4
20190626045311 65 0 0.0 0.0 240.71 0.00 0.00 100 1013.2
20190626044810 65 0 0.0 0.0 240.71 0.00 0.00 100 1013.2
20190626044311 65 0 0.0 0.0 240.71 0.00 0.00 100 1013.3
20190626043811 65 0 0.0 0.0 240.71 0.00 0.00 100 1013.3
20190626043311 65 0 0.0 0.0 240.71 0.00 0.00 100 1013.2
20190626042810 65 0 0.0 0.0 240.71 0.00 0.00 100 1013.2
20190626042311 65 0 0.0 0.0 240.71 0.00 0.00 100 1013.2
20190626041810 65 0 0.0 0.0 240.71 0.00 0.00 100 1013.4
20190626041310 65 0 0.0 0.0 240.71 0.00 0.00 100 1013.3
20190626040811 65 0 0.0 0.0 240.71 0.00 0.00 100 1013.2
20190626040310 66 0 0.0 0.0 240.71 0.00 0.00 100 1013.1
20190626035810 66 0 0.0 0.0 240.71 0.00 0.00 100 1013.2
20190626035311 66 0 0.0 0.0 240.71 0.00 0.35 100 1013.2
20190626034810 66 0 0.0 0.0 240.71 0.00 0.35 100 1013.2
20190626034310 66 0 0.0 0.0 240.71 0.00 0.35 100 1013.2
20190626033811 66 0 0.0 0.0 240.71 0.00 0.35 100 1013.3
20190626033310 66 0 0.0 0.0 240.71 0.00 0.35 100 1013.2
20190626032810 66 0 0.0 0.0 240.71 0.00 0.35 100 1013.2
20190626032311 66 0 0.0 0.0 240.71 0.00 0.35 100 1013.3
20190626031810 66 0 0.0 0.0 240.71 0.00 0.35 100 1013.2
20190626031310 66 0 0.0 0.0 240.71 0.00 0.35 100 1013.2
20190626030811 66 0 0.0 0.0 240.71 0.00 0.35 100 1013.2
20190626030310 66 0 0.0 0.0 240.71 0.00 0.35 100 1013.1
20190626025812 66 0 0.0 0.0 240.71 0.00 0.35 100 1013.0
20190626025311 66 208 0.0 4.0 240.71 0.00 0.35 100 1013.0
20190626024810 66 0 0.0 0.0 240.71 0.00 0.35 100 1013.0
20190626024310 66 0 0.0 0.0 240.71 0.00 0.35 100 1012.9
20190626023811 66 0 0.0 0.0 240.71 0.00 0.35 100 1012.9
20190626023310 66 153 0.0 1.0 240.71 0.00 0.35 100 1012.9
20190626022810 66 0 0.0 0.0 240.71 0.00 0.35 100 1012.9
20190626022311 66 0 0.0 0.0 240.71 0.00 0.35 100 1012.8
20190626021810 66 0 0.0 0.0 240.71 0.00 0.35 100 1012.7
20190626021310 66 0 0.0 0.0 240.71 0.00 0.35 100 1012.7
20190626020811 67 0 0.0 0.0 240.71 0.00 0.35 100 1012.7
20190626015810 67 0 0.0 0.0 240.71 0.00 0.35 100 1012.8
20190626015310 67 0 0.0 0.0 240.71 0.00 0.35 100 1012.8
20190626014810 67 0 0.0 0.0 240.71 0.00 0.35 100 1012.8
20190626014310 67 0 0.0 0.0 240.71 0.00 0.35 100 1012.8
20190626013811 67 0 0.0 0.0 240.71 0.00 0.35 100 1012.7
20190626013310 67 0 0.0 0.0 240.71 0.00 0.35 100 1012.6
20190626012810 67 0 0.0 0.0 240.71 0.00 0.35 100 1012.6
20190626012312 67 0 0.0 0.0 240.71 0.00 0.35 100 1012.6
20190626011810 67 0 0.0 0.0 240.71 0.00 0.35 100 1012.5
20190626011311 67 0 0.0 0.0 240.71 0.00 0.35 100 1012.4
20190626010810 67 0 0.0 0.0 240.71 0.00 0.35 100 1012.4
20190626010310 67 0 0.0 0.0 240.71 0.00 0.35 100 1012.3
20190626005810 67 0 0.0 0.0 240.71 0.00 0.35 100 1012.2
20190626005310 67 0 0.0 0.0 240.71 0.00 0.35 100 1012.2
20190626004810 67 184 0.0 3.0 240.71 0.00 0.35 100 1012.1
20190626004310 67 0 0.0 0.0 240.71 0.00 0.35 100 1012.1
20190626003810 67 62 0.0 2.0 240.71 0.00 0.35 100 1012.0
20190626003310 67 0 0.0 0.0 240.71 0.00 0.35 100 1012.0
20190626002810 67 0 0.0 0.0 240.71 0.00 0.35 100 1011.9
20190626002310 67 0 0.0 0.0 240.71 0.00 0.35 100 1011.9
20190626001810 67 68 0.0 3.0 240.71 0.00 0.35 100 1011.8
20190626001310 67 0 0.0 0.0 240.71 0.00 0.35 100 1011.8
20190626000810 67 0 0.0 0.0 240.71 0.00 0.35 100 1011.9
20190626000310 67 141 2.0 4.0 240.71 0.00 0.35 100 1011.8
20190625235814 67 0 0.0 0.0 240.71 0.00 0.35 100 1011.8
20190625235311 67 0 0.0 0.0 240.71 0.00 0.35 100 1011.9
20190625234810 67 0 0.0 0.0 240.71 0.00 0.35 100 1012.0
20190625234310 67 0 0.0 0.0 240.71 0.00 0.35 100 1012.0
20190625233810 67 0 0.0 0.0 240.71 0.00 0.35 100 1012.1
20190625232809 67 0 0.0 0.0 240.71 0.00 0.35 100 1012.1
20190625232310 67 0 0.0 0.0 240.71 0.00 0.35 100 1012.0
20190625231809 67 0 0.0 0.0 240.71 0.00 0.35 100 1012.0
20190625231309 67 148 0.0 4.0 240.71 0.00 0.35 100 1011.9
20190625230810 67 170 2.0 4.0 240.70 0.00 0.34 100 1011.9
20190625230310 67 184 0.0 5.0 240.70 0.00 0.34 100 1012.0
20190625225809 67 194 2.0 4.0 240.70 0.00 0.34 100 1012.0
20190625225311 68 179 0.0 3.0 240.70 0.00 0.34 100 1011.9
20190625224809 68 160 2.0 6.0 240.70 0.00 0.34 100 1012.0
20190625224309 68 155 4.0 7.0 240.69 0.00 0.33 100 1011.9
20190625223811 68 153 2.0 5.0 240.68 0.00 0.32 100 1011.9
20190625223309 68 186 1.0 5.0 240.65 0.00 0.29 100 1011.8
20190625222809 68 145 1.0 4.0 240.63 0.00 0.27 100 1011.8
20190625222310 68 207 2.0 7.0 240.62 0.00 0.26 100 1011.8
20190625221809 68 172 0.0 6.0 240.62 0.00 0.26 100 1011.6
20190625221309 68 198 3.0 6.0 240.61 0.00 0.25 100 1011.6
20190625220810 68 221 3.0 7.0 240.60 0.00 0.24 100 1011.5
20190625220309 68 186 1.0 5.0 240.60 0.00 0.24 99 1011.5
20190625215809 68 217 3.0 5.0 240.59 0.00 0.23 100 1011.5
20190625215310 68 238 2.0 4.0 240.58 0.00 0.22 99 1011.4
20190625214309 68 203 0.0 6.0 240.58 0.00 0.22 99 1011.4
20190625213811 68 184 1.0 7.0 240.57 0.00 0.21 100 1011.3
20190625213309 68 193 2.0 8.0 240.57 0.00 0.21 100 1011.3
20190625212809 68 0 0.0 0.0 240.57 0.00 0.21 100 1011.3
20190625212311 68 138 0.0 3.0 240.57 0.00 0.21 100 1011.2
20190625211810 68 149 4.0 11.0 240.57 0.00 0.21 100 1011.3
20190625211309 69 135 0.0 6.0 240.57 0.00 0.21 100 1011.3
20190625210810 68 176 3.0 7.0 240.57 0.00 0.21 100 1011.2
20190625210309 69 172 3.0 10.0 240.57 0.00 0.21 100 1011.2
20190625205809 68 167 1.0 6.0 240.57 0.00 0.21 100 1011.3
20190625205310 69 156 3.0 6.0 240.57 0.00 0.21 100 1011.3
20190625204809 69 179 2.0 6.0 240.57 0.00 0.21 100 1011.3
20190625204309 68 115 3.0 5.0 240.57 0.00 0.21 100 1011.3
20190625203810 68 226 1.0 9.0 240.57 0.00 0.21 100 1011.2
20190625203309 68 162 3.0 7.0 240.57 0.00 0.21 99 1011.2
20190625202809 68 162 2.0 9.0 240.57 0.00 0.21 99 1011.2
20190625202310 68 169 3.0 8.0 240.57 0.00 0.21 99 1011.3
20190625201809 68 170 2.0 7.0 240.57 0.00 0.21 99 1011.3
20190625201309 68 173 2.0 9.0 240.57 0.00 0.21 99 1011.2
20190625200810 68 125 4.0 8.0 240.57 0.00 0.21 99 1011.2
20190625200309 68 138 4.0 10.0 240.57 0.00 0.21 99 1011.3
20190625195809 68 136 3.0 6.0 240.57 0.00 0.21 99 1011.4